KHTO

East Hampton Airport

East Hampton, New York, USA
METAR KHTO 201515Z AUTO 24006KT 3/4SM BR OVC003 09/09 A3033 RMK AO2 T00870085
Observed Flight Rules
Feb-20 @ 15:15 UTC (2 hours ago) Instrument Flight Rules
Wind Visibility Clouds Conditions
240° at 6 knots 3/4 miles
  • Overcast at 300' AGL
  • Mist
Temperatures Readings
Current 9°C / 48°F
Dewpoint 9°C / 48°F
Humidity 100%
Altimeter 30.33" Hg
Pressure 1027 hPa
Elevation 17
METAR KHTO 201515Z AUTO 24006KT 3/4SM BR OVC003 09/09 A3033 RMK AO2 T00870085
Observed Flight Rules
Feb-20 @ 15:15 UTC
(2 hours ago)
LIFR
Wind Visibility
240° at 6 knots 3/4 miles
Clouds
  • Overcast at 300' AGL
Conditions
  • Mist
Temperature Dewpoint
9°C / 48°F 9°C / 48°F
Humidity Altimeter Pressure
100% 30.33" Hg 1027 hPa